METAR AND TAF INFORMATION
METAR FOR UARR
ADDS - METARS form results

(1547 UTC 30 May 2020)
Data provider http://aviationweather.gov/metar/data/
 
METAR text: UARR 301530Z 05004MPS 9999 SCT050CB BKN133 30/12 Q1007 R04/CLRD70 NOSIG RMK QFE751/1002
Conditions at: UARR (URALSK , KZ) observed 1530 UTC 30 May 2020
Temperature: 30.0°C (86°F)
Dewpoint: 12.0°C (54°F) [RH = 33%]
Pressure (altimeter): 29.73 inches Hg (1007.0 mb)
Winds: from the NE (50 degrees) at 9 MPH (8 knots; 4.1 m/s)
Visibility: 6 or more miles (10+ km)
Ceiling: 13300 feet AGL
Clouds: scattered clouds at 5000 feet AGL
broken clouds at 13300 feet AGL
Weather: no significant weather observed at this time

METAR text: UARR 301500Z 06005MPS 9999 SCT050CB BKN133 31/12 Q1007 R04/CLRD70 NOSIG RMK QFE752/1002
Conditions at: UARR (URALSK , KZ) observed 1500 UTC 30 May 2020
Temperature: 31.0°C (88°F)
Dewpoint: 12.0°C (54°F) [RH = 31%]
Pressure (altimeter): 29.73 inches Hg (1007.0 mb)
Winds: from the ENE (60 degrees) at 12 MPH (10 knots; 5.1 m/s)
Visibility: 6 or more miles (10+ km)
Ceiling: 13300 feet AGL
Clouds: scattered clouds at 5000 feet AGL
broken clouds at 13300 feet AGL
Weather: no significant weather observed at this time

Forecast for: UARR (URALSK , KZ)
Text: TAF UARR 301400Z 3015/3024 07005MPS 9999 SCT040
Forecast period: 1500 to 1800 UTC 30 May 2020
Forecast type: FROM: standard forecast or significant change
Winds: from the ENE (70 degrees) at 12 MPH (10 knots; 5.1 m/s)
Visibility: 6 or more miles 10+ km)
Ceiling: at least 12,000 feet AGL
Clouds: scattered clouds at 4000 feet AGL
Weather: no significant weather forecast for this period
Text: TEMPO 3015/3018 12007G12MPS SCT050CB
Forecast period: 1500 to 1800 UTC 30 May 2020
Forecast type: TEMPORARY: The following changes expected for less than half the time period
Winds: from the ESE (120 degrees) at 16 MPH (14 knots; 7.2 m/s)
gusting to 26 MPH (23 knots; 11.8 m/s)
Visibility: missing
Ceiling: at least 12,000 feet AGL
Clouds: scattered clouds at 5000 feet AGL
Weather: no significant weather forecast for this period
Text: BECMG 3018/3020 23005MPS
Forecast period: 1800 UTC 30 May 2020 to 0000 UTC 31 May 2020
Forecast type: BECOMING: Conditions expected to become as follows by 2000 UTC 30 May 2020
Winds: from the SW (230 degrees) at 12 MPH (10 knots; 5.1 m/s)
Visibility: 6 or more miles 10+ km)
Ceiling: at least 12,000 feet AGL
Clouds: scattered clouds at 4000 feet AGL
Weather: no significant weather forecast for this period

 AIRPORT MAP

 RUNWAY INFORMATION

 AIRPORT FREQUENCIES
Type TWR Name TWR Frequency 119.7 MHZ

 AIRPORT NEAR NAVIGATION AIDS
Type NDB Name Uralsk Frequency 442 KHZ
Type NDB Name Uralsk Frequency 442 KHZ
Type VOR-DME Name Uralsk Frequency 114200 KHZ



2018 Air Astana Virtual Airline